Time;durP1;ratioP1;P1;durP2;ratioP2;P2;SDS_P1;SDS_P2;PMS_P1;PMS_P2;Temp;Humidity;BMP_temperature;BMP_pressure;BME280_temperature;BME280_humidity;BME280_pressure;Samples;Min_cycle;Max_cycle;Signal;HPM_P1;HPM_P2
2023/07/05 00:00:30;;;;;;;15.25;9.57;;;;;;;24.17;100.00;100227.13;5033035;28;20025;-66
2023/07/05 00:02:56;;;;;;;11.02;9.70;;;;;;;24.17;100.00;100236.81;5033319;28;20052;-66
2023/07/05 00:05:22;;;;;;;11.23;9.50;;;;;;;24.17;100.00;100231.53;5032890;28;20463;-66
2023/07/05 00:07:47;;;;;;;15.02;9.98;;;;;;;24.12;100.00;100218.47;5030659;28;20131;-67
2023/07/05 00:10:13;;;;;;;12.75;9.73;;;;;;;24.20;100.00;100220.91;5033104;28;20053;-66
2023/07/05 00:12:38;;;;;;;13.05;10.13;;;;;;;24.15;100.00;100222.78;5030711;28;20484;-66
2023/07/05 00:15:05;;;;;;;11.23;10.02;;;;;;;24.15;100.00;100230.69;5032894;28;20026;-66
2023/07/05 00:17:32;;;;;;;12.57;10.75;;;;;;;24.13;100.00;100227.25;5031557;28;20482;-66
2023/07/05 00:19:58;;;;;;;17.13;11.80;;;;;;;24.14;100.00;100229.84;5032673;28;20480;-67
2023/07/05 00:22:26;;;;;;;16.33;10.52;;;;;;;24.01;100.00;100231.91;5032198;28;20025;-66
2023/07/05 00:24:55;;;;;;;15.25;10.75;;;;;;;23.93;100.00;100241.75;5030624;28;20049;-67
2023/07/05 00:27:22;;;;;;;12.55;10.73;;;;;;;23.79;100.00;100243.78;5032542;28;20021;-68
2023/07/05 00:29:49;;;;;;;14.07;10.85;;;;;;;23.81;100.00;100231.44;5032493;28;20033;-66
2023/07/05 00:32:14;;;;;;;14.93;11.23;;;;;;;23.79;100.00;100231.47;5032613;28;20041;-69
2023/07/05 00:34:40;;;;;;;14.07;10.38;;;;;;;23.79;100.00;100233.22;5032381;28;20033;-68
2023/07/05 00:37:05;;;;;;;14.93;10.63;;;;;;;23.73;100.00;100227.19;5031191;28;20039;-67
2023/07/05 00:39:31;;;;;;;11.57;10.35;;;;;;;23.81;100.00;100227.03;5032466;28;20021;-68
2023/07/05 00:41:56;;;;;;;11.93;10.50;;;;;;;23.80;100.00;100233.22;5032613;28;20017;-66
2023/07/05 00:44:22;;;;;;;14.10;11.20;;;;;;;23.81;100.00;100218.25;5032183;28;20049;-68
2023/07/05 00:46:57;;;;;;;13.70;11.68;;;;;;;23.74;100.00;100225.44;5032672;28;20017;-68
2023/07/05 00:49:26;;;;;;;16.75;10.45;;;;;;;23.71;100.00;100225.50;5032453;28;20471;-66
2023/07/05 00:51:52;;;;;;;12.27;10.85;;;;;;;23.64;100.00;100227.41;5032258;28;20033;-68
2023/07/05 00:54:26;;;;;;;15.95;11.48;;;;;;;23.62;100.00;100223.06;5032073;28;20025;-68
2023/07/05 00:56:56;;;;;;;14.00;11.02;;;;;;;23.47;100.00;100192.63;5032022;28;20122;-68
2023/07/05 00:59:26;;;;;;;16.33;11.32;;;;;;;23.59;100.00;100222.22;5031917;28;20026;-67
2023/07/05 01:01:52;;;;;;;14.15;11.63;;;;;;;23.51;100.00;100208.31;5022696;28;20051;-68
2023/07/05 01:04:18;;;;;;;16.85;11.77;;;;;;;23.61;100.00;100205.50;5022823;28;20488;-65
2023/07/05 01:06:44;;;;;;;16.42;11.70;;;;;;;23.74;100.00;100213.13;5032066;28;20092;-67
2023/07/05 01:09:10;;;;;;;15.70;11.68;;;;;;;23.80;100.00;100212.13;5032405;28;20079;-67
2023/07/05 01:11:41;;;;;;;24.65;12.73;;;;;;;23.78;100.00;100215.69;5032226;28;20033;-68
2023/07/05 01:14:24;;;;;;;14.50;11.68;;;;;;;23.78;100.00;100213.91;5031768;28;20034;-67
2023/07/05 01:17:07;;;;;;;14.82;11.52;;;;;;;23.62;100.00;100223.91;5024448;28;20528;-67
2023/07/05 01:19:55;;;;;;;13.32;11.63;;;;;;;23.51;100.00;100220.66;5024214;28;20068;-67
2023/07/05 01:23:02;;;;;;;13.57;12.10;;;;;;;23.30;100.00;100211.41;5031538;28;20099;-67
2023/07/05 01:25:46;;;;;;;13.35;11.90;;;;;;;23.22;100.00;100227.38;5030523;28;20025;-67
2023/07/05 01:28:15;;;;;;;18.67;11.98;;;;;;;23.16;100.00;100219.59;5030971;28;20037;-67
2023/07/05 01:30:43;;;;;;;15.88;11.82;;;;;;;23.15;100.00;100217.81;5018397;28;20803;-68
2023/07/05 01:33:17;;;;;;;16.98;11.70;;;;;;;22.88;100.00;100185.81;5030922;28;20496;-68
2023/07/05 01:35:49;;;;;;;20.77;12.63;;;;;;;22.90;100.00;100187.56;5031543;28;20055;-64
2023/07/05 01:38:14;;;;;;;15.48;12.65;;;;;;;23.03;100.00;100201.34;5031307;28;20034;-64
2023/07/05 01:40:43;;;;;;;14.20;12.70;;;;;;;23.08;100.00;100212.66;5031541;28;20056;-66
2023/07/05 01:43:13;;;;;;;14.05;12.27;;;;;;;22.94;100.00;100185.72;5031118;28;20042;-64
2023/07/05 01:46:00;;;;;;;14.63;13.13;;;;;;;23.12;100.00;100197.66;5031382;28;20059;-68
2023/07/05 01:48:44;;;;;;;17.52;12.45;;;;;;;23.14;100.00;100205.53;5031296;28;20029;-64
2023/07/05 01:51:33;;;;;;;15.18;12.63;;;;;;;23.10;100.00;100208.25;5031693;28;20036;-65
2023/07/05 01:54:10;;;;;;;17.15;12.77;;;;;;;23.07;100.00;100200.38;5031247;28;20022;-68
2023/07/05 01:56:59;;;;;;;16.45;12.60;;;;;;;23.13;100.00;100199.41;5031324;28;20431;-63
2023/07/05 01:59:31;;;;;;;16.27;12.55;;;;;;;23.10;100.00;100197.72;5031463;28;20030;-68
2023/07/05 02:01:59;;;;;;;15.45;12.32;;;;;;;23.12;100.00;100200.31;5031282;28;20030;-66
2023/07/05 02:04:26;;;;;;;22.10;13.02;;;;;;;22.98;100.00;100168.97;5031014;28;20025;-67
2023/07/05 02:06:53;;;;;;;17.83;12.93;;;;;;;23.18;100.00;100205.50;5031336;28;20021;-67
2023/07/05 02:09:19;;;;;;;22.02;12.80;;;;;;;23.21;100.00;100210.69;5031348;28;20025;-71
2023/07/05 02:11:44;;;;;;;18.00;12.52;;;;;;;23.29;100.00;100209.66;5031327;28;20049;-64
2023/07/05 02:14:11;;;;;;;16.13;12.57;;;;;;;23.22;100.00;100207.16;5030915;28;20484;-68
2023/07/05 02:16:38;;;;;;;16.25;13.02;;;;;;;23.19;100.00;100201.97;5030429;28;20044;-67
2023/07/05 02:19:06;;;;;;;15.65;12.35;;;;;;;23.09;100.00;100206.50;5030646;28;20083;-67
2023/07/05 02:21:31;;;;;;;16.77;12.40;;;;;;;22.81;100.00;100181.59;5031157;28;20025;-70
2023/07/05 02:23:57;;;;;;;15.95;13.00;;;;;;;22.86;100.00;100203.44;5030989;28;20514;-64
2023/07/05 02:26:23;;;;;;;18.83;13.45;;;;;;;22.77;100.00;100212.34;5031060;28;20025;-63
2023/07/05 02:28:48;;;;;;;16.25;13.77;;;;;;;22.51;100.00;100184.72;5030780;28;20029;-64
2023/07/05 02:31:14;;;;;;;15.75;14.05;;;;;;;22.61;100.00;100211.75;5030942;28;20040;-65
2023/07/05 02:33:40;;;;;;;15.20;13.70;;;;;;;22.55;100.00;100209.22;5030405;28;20037;-67
2023/07/05 02:36:08;;;;;;;18.08;14.90;;;;;;;22.48;100.00;100220.72;5030963;28;20030;-68
2023/07/05 02:38:34;;;;;;;20.70;15.65;;;;;;;22.36;100.00;100208.63;5030528;28;20475;-66
2023/07/05 02:41:00;;;;;;;17.35;15.00;;;;;;;22.31;100.00;100206.06;5030659;28;20480;-71
2023/07/05 02:43:25;;;;;;;21.30;14.75;;;;;;;22.38;100.00;100209.50;5030598;28;20079;-67
2023/07/05 02:45:50;;;;;;;16.65;14.90;;;;;;;22.42;100.00;100212.06;5030671;28;20057;-67
2023/07/05 02:48:16;;;;;;;19.92;15.02;;;;;;;22.42;100.00;100205.94;5030344;28;20112;-66
2023/07/05 02:50:41;;;;;;;16.98;15.18;;;;;;;22.41;100.00;100206.81;5030711;28;20033;-70
2023/07/05 02:53:07;;;;;;;16.48;14.68;;;;;;;22.36;100.00;100214.75;5030742;28;20021;-67
2023/07/05 02:55:32;;;;;;;17.38;15.30;;;;;;;22.33;100.00;100224.44;5011667;28;20095;-64
2023/07/05 02:57:58;;;;;;;16.50;14.80;;;;;;;22.30;100.00;100214.84;5030132;28;20500;-65
2023/07/05 03:00:24;;;;;;;17.80;14.13;;;;;;;22.32;100.00;100215.69;5030351;28;20026;-63
2023/07/05 03:02:49;;;;;;;18.55;15.20;;;;;;;22.26;100.00;100202.66;5030504;28;20025;-67
2023/07/05 03:05:15;;;;;;;18.52;16.65;;;;;;;22.39;100.00;100205.97;5030359;28;20456;-68
2023/07/05 03:07:40;;;;;;;19.05;16.52;;;;;;;22.41;100.00;100214.72;5030213;28;20032;-65
2023/07/05 03:10:07;;;;;;;18.52;16.63;;;;;;;22.35;100.00;100213.00;5030407;28;20080;-68
2023/07/05 03:12:33;;;;;;;19.25;17.30;;;;;;;22.40;100.00;100218.22;5029052;28;20057;-66
2023/07/05 03:14:58;;;;;;;18.77;16.85;;;;;;;22.35;100.00;100218.25;5029262;28;20479;-66
2023/07/05 03:17:24;;;;;;;20.08;16.98;;;;;;;22.21;100.00;100184.31;5034475;28;20090;-67
2023/07/05 03:19:52;;;;;;;17.38;15.52;;;;;;;22.38;100.00;100215.63;5050308;28;20494;-69
2023/07/05 03:22:17;;;;;;;19.13;15.90;;;;;;;22.43;100.00;100219.06;5050282;28;20033;-67
2023/07/05 03:24:43;;;;;;;18.25;16.13;;;;;;;22.43;100.00;100218.16;5050297;28;20025;-65
2023/07/05 03:27:08;;;;;;;18.13;16.23;;;;;;;22.48;100.00;100215.47;5052400;28;20082;-65
2023/07/05 03:29:34;;;;;;;17.48;14.45;;;;;;;22.46;100.00;100205.84;5054238;28;20029;-67
2023/07/05 03:32:00;;;;;;;15.82;13.48;;;;;;;22.51;100.00;100215.44;5054179;28;20039;-67
2023/07/05 03:34:25;;;;;;;17.40;13.95;;;;;;;22.49;100.00;100215.44;5050969;28;20029;-67
2023/07/05 03:36:50;;;;;;;16.75;13.80;;;;;;;22.46;100.00;100211.09;5034219;28;20407;-63
2023/07/05 03:39:19;;;;;;;20.73;14.30;;;;;;;22.51;100.00;100212.81;5034268;28;20063;-65
2023/07/05 03:41:44;;;;;;;26.13;16.45;;;;;;;22.52;100.00;100210.16;5034264;28;20094;-65
2023/07/05 03:44:10;;;;;;;23.02;15.52;;;;;;;22.73;100.00;100213.28;5033920;28;20025;-69
2023/07/05 03:46:36;;;;;;;20.05;15.48;;;;;;;22.67;100.00;100206.38;5033611;28;20389;-68
2023/07/05 03:49:01;;;;;;;24.88;15.63;;;;;;;22.70;100.00;100219.47;5033931;28;20032;-68
2023/07/05 03:51:27;;;;;;;21.20;15.13;;;;;;;22.48;100.00;100176.00;5033974;28;20033;-65
2023/07/05 03:53:55;;;;;;;27.55;17.75;;;;;;;22.75;100.00;100222.03;5033694;28;20022;-71
2023/07/05 03:56:22;;;;;;;35.70;17.70;;;;;;;22.86;100.00;100222.72;5033923;28;20052;-64
2023/07/05 03:58:47;;;;;;;28.52;16.13;;;;;;;22.94;100.00;100222.56;5033391;28;20021;-63
2023/07/05 04:01:17;;;;;;;40.42;17.80;;;;;;;22.78;100.00;100183.38;5033374;28;20067;-65
2023/07/05 04:03:48;;;;;;;27.13;16.10;;;;;;;23.02;100.00;100225.09;5033296;28;20029;-67
2023/07/05 04:06:15;;;;;;;32.03;17.38;;;;;;;22.80;100.00;100193.00;5033630;28;20043;-66
2023/07/05 04:08:40;;;;;;;27.58;17.42;;;;;;;23.06;100.00;100219.72;5033312;28;20045;-67
2023/07/05 04:11:06;;;;;;;33.55;16.75;;;;;;;23.11;100.00;100222.25;5033468;28;20397;-67
2023/07/05 04:13:32;;;;;;;33.13;15.52;;;;;;;23.15;100.00;100228.34;5033112;28;20494;-65
2023/07/05 04:16:04;;;;;;;37.85;14.73;;;;;;;23.16;100.00;100227.47;5033470;28;20032;-65
2023/07/05 04:18:31;;;;;;;17.10;11.93;;;;;;;23.20;100.00;100227.41;5033030;28;20411;-67
2023/07/05 04:20:57;;;;;;;15.50;11.38;;;;;;;23.26;100.00;100231.66;5033233;28;20028;-63
2023/07/05 04:23:23;;;;;;;18.50;11.05;;;;;;;23.30;100.00;100225.44;5033107;28;20116;-64
2023/07/05 04:25:49;;;;;;;15.77;10.60;;;;;;;23.36;100.00;100230.56;5033080;28;20068;-63
2023/07/05 04:28:14;;;;;;;15.40;10.35;;;;;;;23.37;100.00;100234.94;5032902;28;20479;-65
2023/07/05 04:30:40;;;;;;;20.33;12.40;;;;;;;23.37;100.00;100234.94;5033183;28;20025;-66
2023/07/05 04:33:05;;;;;;;23.52;16.02;;;;;;;23.28;100.00;100221.97;5033089;28;20100;-67
2023/07/05 04:35:31;;;;;;;27.30;17.92;;;;;;;23.25;100.00;100228.19;5032822;28;20107;-67
2023/07/05 04:37:56;;;;;;;27.33;18.80;;;;;;;23.20;100.00;100226.50;5032072;28;20037;-64
2023/07/05 04:40:22;;;;;;;28.90;19.88;;;;;;;23.13;100.00;100230.13;5032833;28;20037;-65
2023/07/05 04:42:47;;;;;;;26.23;19.02;;;;;;;23.01;100.00;100216.28;5032559;28;20026;-67
2023/07/05 04:45:13;;;;;;;26.63;20.20;;;;;;;23.03;100.00;100232.94;5033054;28;20411;-72
2023/07/05 04:47:38;;;;;;;24.58;20.20;;;;;;;23.01;100.00;100229.47;5032657;28;20037;-63
2023/07/05 04:50:04;;;;;;;24.00;20.50;;;;;;;22.98;100.00;100229.53;5032829;28;20036;-68
2023/07/05 04:52:30;;;;;;;22.85;20.08;;;;;;;22.96;100.00;100235.72;5032890;28;20033;-64
2023/07/05 04:54:55;;;;;;;25.23;20.90;;;;;;;22.83;100.00;100221.88;5032432;28;20040;-68
2023/07/05 04:57:21;;;;;;;23.30;20.85;;;;;;;22.83;100.00;100233.31;5026908;28;20053;-67
2023/07/05 04:59:51;;;;;;;23.23;20.33;;;;;;;22.80;100.00;100240.38;5021849;28;20026;-65
2023/07/05 05:02:17;;;;;;;21.63;18.90;;;;;;;22.76;100.00;100232.53;5012623;28;20026;-69
2023/07/05 05:04:42;;;;;;;23.08;15.82;;;;;;;22.77;100.00;100228.16;5012922;28;20559;-65
2023/07/05 05:07:07;;;;;;;20.67;16.33;;;;;;;22.76;100.00;100219.38;5032034;28;20033;-68
2023/07/05 05:09:33;;;;;;;18.88;15.65;;;;;;;22.82;100.00;100222.78;5032208;28;20041;-64
2023/07/05 05:11:58;;;;;;;16.88;15.18;;;;;;;22.90;100.00;100218.25;5032034;28;20029;-67
2023/07/05 05:14:23;;;;;;;15.88;14.25;;;;;;;22.96;100.00;100218.16;5031967;28;20108;-67
2023/07/05 05:16:49;;;;;;;16.98;14.43;;;;;;;23.09;100.00;100221.41;5030990;28;20025;-64
2023/07/05 05:19:14;;;;;;;19.40;13.40;;;;;;;23.20;100.00;100213.34;5031187;28;20032;-67
2023/07/05 05:21:40;;;;;;;14.70;12.88;;;;;;;23.13;100.00;100191.50;5029595;28;20795;-68
2023/07/05 05:24:05;;;;;;;14.77;12.75;;;;;;;23.47;100.00;100221.63;5029286;28;20025;-69
2023/07/05 05:26:31;;;;;;;14.70;13.13;;;;;;;23.56;100.00;100224.03;5031183;28;20025;-68
2023/07/05 05:28:56;;;;;;;19.92;13.63;;;;;;;23.64;100.00;100214.22;5031107;28;20029;-67
2023/07/05 05:31:21;;;;;;;22.80;14.23;;;;;;;23.66;100.00;100214.19;5031495;28;20021;-67
2023/07/05 05:33:47;;;;;;;17.08;12.55;;;;;;;23.72;100.00;100216.69;5031103;28;20394;-72
2023/07/05 05:36:12;;;;;;;15.43;11.65;;;;;;;23.60;100.00;100196.72;5033439;28;20037;-68
2023/07/05 05:38:38;;;;;;;15.75;12.45;;;;;;;23.74;100.00;100221.03;5031254;28;20025;-66
2023/07/05 05:41:09;;;;;;;18.83;11.77;;;;;;;23.76;100.00;100210.44;5031271;28;20487;-68
2023/07/05 05:43:35;;;;;;;12.10;11.00;;;;;;;23.93;100.00;100217.16;5031071;28;20029;-67
2023/07/05 05:46:00;;;;;;;15.13;11.50;;;;;;;24.02;100.00;100212.53;5031239;28;20476;-67
2023/07/05 05:48:26;;;;;;;15.15;11.35;;;;;;;24.22;100.00;100222.63;5031241;28;20060;-69
2023/07/05 05:50:52;;;;;;;15.13;11.35;;;;;;;24.18;100.00;100191.09;5031289;28;20075;-66
2023/07/05 05:53:17;;;;;;;15.20;10.68;;;;;;;24.38;100.00;100219.63;5031007;28;20056;-68
2023/07/05 05:55:43;;;;;;;13.30;10.88;;;;;;;24.41;100.00;100219.53;5030664;28;20025;-65
2023/07/05 05:58:08;;;;;;;13.10;9.50;;;;;;;24.44;100.00;100221.25;5030739;28;20428;-67
2023/07/05 06:00:34;;;;;;;12.63;10.52;;;;;;;24.58;100.00;100215.63;5030751;28;20030;-68
2023/07/05 06:03:01;;;;;;;12.93;10.55;;;;;;;24.48;100.00;100185.97;5030665;28;20476;-71
2023/07/05 06:05:26;;;;;;;13.45;10.98;;;;;;;24.67;100.00;100213.66;5030821;28;20498;-70
2023/07/05 06:07:52;;;;;;;13.85;10.43;;;;;;;24.59;100.00;100186.53;5030062;28;20100;-68
2023/07/05 06:10:18;;;;;;;12.82;11.52;;;;;;;24.82;100.00;100216.78;5031055;28;20087;-66
2023/07/05 06:12:43;;;;;;;16.25;11.80;;;;;;;24.84;100.00;100222.91;5031131;28;20480;-65
2023/07/05 06:15:11;;;;;;;13.10;11.80;;;;;;;24.86;100.00;100197.31;5030902;28;20029;-68
2023/07/05 06:17:37;;;;;;;14.82;13.32;;;;;;;24.85;100.00;100198.25;5030690;28;20396;-65
2023/07/05 06:20:06;;;;;;;17.25;14.68;;;;;;;24.93;100.00;100198.03;5030958;28;20029;-68
2023/07/05 06:22:32;;;;;;;16.48;14.85;;;;;;;25.11;100.00;100210.75;5030760;28;20108;-65
2023/07/05 06:24:57;;;;;;;17.08;15.00;;;;;;;25.08;100.00;100209.94;5030834;28;20601;-69
2023/07/05 06:27:23;;;;;;;18.73;16.75;;;;;;;25.13;100.00;100206.25;5031053;28;20037;-64
2023/07/05 06:29:49;;;;;;;19.65;16.40;;;;;;;25.27;100.00;100210.28;5030568;28;20427;-65
2023/07/05 06:32:14;;;;;;;16.38;14.73;;;;;;;25.38;100.00;100205.59;5031021;28;20029;-64
2023/07/05 06:34:40;;;;;;;14.20;12.80;;;;;;;25.44;100.00;100204.56;5030580;28;20136;-67
2023/07/05 06:37:05;;;;;;;14.35;12.95;;;;;;;25.50;100.00;100207.03;5030801;28;20033;-69
2023/07/05 06:39:30;;;;;;;14.88;13.57;;;;;;;25.61;100.00;100202.28;5030518;28;20064;-65
2023/07/05 06:41:56;;;;;;;17.20;15.50;;;;;;;25.67;100.00;100204.75;5030688;28;20080;-67
2023/07/05 06:44:21;;;;;;;17.33;15.77;;;;;;;25.66;100.00;100191.59;5030379;28;20032;-66
2023/07/05 06:46:47;;;;;;;18.75;15.32;;;;;;;25.76;100.00;100219.47;5030712;28;20030;-68
2023/07/05 06:49:12;;;;;;;17.35;15.70;;;;;;;25.86;100.00;100209.50;5030685;28;20414;-65
2023/07/05 06:51:37;;;;;;;16.08;14.63;;;;;;;26.05;99.32;100212.41;5030319;28;20106;-65
2023/07/05 06:54:03;;;;;;;17.08;14.45;;;;;;;26.13;98.86;100204.25;5030264;28;20022;-65
2023/07/05 06:56:28;;;;;;;12.95;11.75;;;;;;;26.25;100.00;100203.88;5030349;28;20496;-65
2023/07/05 06:58:54;;;;;;;13.38;11.55;;;;;;;26.34;98.93;100215.94;5028969;28;20049;-68
2023/07/05 07:01:20;;;;;;;12.32;11.07;;;;;;;26.33;94.49;100195.69;5029823;28;20036;-64
2023/07/05 07:03:45;;;;;;;14.52;12.52;;;;;;;26.45;95.92;100212.94;5030252;28;20036;-70
2023/07/05 07:06:11;;;;;;;14.02;12.63;;;;;;;26.42;99.02;100197.19;5030593;28;20527;-65
2023/07/05 07:08:39;;;;;;;14.48;12.82;;;;;;;26.42;98.07;100208.63;5030022;28;20033;-67
2023/07/05 07:11:06;;;;;;;15.82;9.82;;;;;;;26.28;98.00;100185.25;5030722;28;20088;-68
2023/07/05 07:13:33;;;;;;;10.13;8.52;;;;;;;26.39;95.63;100198.13;5030347;28;20034;-68
2023/07/05 07:16:16;;;;;;;10.90;8.82;;;;;;;26.53;95.01;100210.03;5030455;28;20502;-66
2023/07/05 07:18:45;;;;;;;13.38;8.65;;;;;;;26.58;95.09;100211.63;5029965;28;20040;-65
2023/07/05 07:21:10;;;;;;;12.57;9.05;;;;;;;26.49;96.32;100206.63;5030124;28;20025;-68
2023/07/05 07:23:36;;;;;;;11.23;8.27;;;;;;;26.53;94.70;100194.16;5030004;28;20040;-72
2023/07/05 07:26:06;;;;;;;10.35;8.38;;;;;;;26.74;95.05;100206.72;5030306;28;20032;-68
2023/07/05 07:28:32;;;;;;;11.30;8.82;;;;;;;26.92;95.59;100207.84;5027919;28;20037;-69
2023/07/05 07:30:57;;;;;;;9.30;8.30;;;;;;;26.95;94.57;100206.84;5030110;28;20018;-69
2023/07/05 07:33:24;;;;;;;14.80;8.63;;;;;;;27.05;91.84;100218.84;5029959;28;20412;-69
2023/07/05 07:35:49;;;;;;;10.85;8.65;;;;;;;27.03;93.41;100191.56;5029955;28;20022;-69
2023/07/05 07:38:16;;;;;;;10.65;8.70;;;;;;;27.10;94.84;100201.03;5027680;28;20396;-68
2023/07/05 07:40:42;;;;;;;17.00;9.48;;;;;;;27.22;90.19;100202.34;5027755;28;20085;-65
2023/07/05 07:43:08;;;;;;;17.00;10.13;;;;;;;27.35;90.27;100213.34;5030038;28;20479;-68
2023/07/05 07:45:33;;;;;;;15.70;9.95;;;;;;;27.49;89.83;100209.38;5029853;28;20069;-65
2023/07/05 07:47:59;;;;;;;13.30;8.52;;;;;;;27.64;90.14;100205.25;5029837;28;20079;-69
2023/07/05 07:50:25;;;;;;;12.48;8.02;;;;;;;27.80;87.71;100206.38;5029607;28;20127;-65
2023/07/05 07:52:52;;;;;;;11.07;8.75;;;;;;;27.87;85.70;100199.06;5029676;28;20029;-68
2023/07/05 07:55:17;;;;;;;13.23;8.20;;;;;;;27.96;86.50;100204.00;5029979;28;20108;-64
2023/07/05 07:57:42;;;;;;;14.32;9.40;;;;;;;27.98;89.34;100199.50;5030265;28;20053;-69
2023/07/05 08:00:10;;;;;;;17.40;9.30;;;;;;;27.86;88.06;100169.00;5029222;28;20525;-68
2023/07/05 08:02:36;;;;;;;11.10;8.82;;;;;;;28.02;91.25;100193.16;5029626;28;20120;-67
2023/07/05 08:05:03;;;;;;;10.30;8.45;;;;;;;27.68;87.73;100148.56;5029493;28;20025;-66
2023/07/05 08:07:48;;;;;;;18.30;8.43;;;;;;;27.98;87.74;100207.47;5029899;28;20036;-64
2023/07/05 08:10:13;;;;;;;18.55;10.43;;;;;;;28.09;86.46;100202.63;5027175;28;20819;-67
2023/07/05 08:12:39;;;;;;;12.57;9.25;;;;;;;28.08;86.79;100182.31;5027351;28;20042;-64
2023/07/05 08:15:05;;;;;;;16.75;9.55;;;;;;;28.35;86.15;100203.38;5030530;28;20411;-67
2023/07/05 08:17:30;;;;;;;14.73;9.98;;;;;;;28.46;86.06;100207.34;5030654;28;20034;-67
2023/07/05 08:19:56;;;;;;;13.65;8.52;;;;;;;28.58;84.58;100206.84;5030654;28;20582;-67
2023/07/05 08:22:21;;;;;;;13.02;9.07;;;;;;;28.63;84.61;100204.84;5030563;28;20026;-64
2023/07/05 08:24:46;;;;;;;13.25;9.02;;;;;;;28.52;86.75;100194.66;5030467;28;20092;-65
2023/07/05 08:27:12;;;;;;;12.07;9.20;;;;;;;28.40;87.10;100174.81;5030478;28;20521;-65
2023/07/05 08:29:37;;;;;;;14.15;9.15;;;;;;;28.38;84.16;100157.22;5030372;28;20037;-67
2023/07/05 08:32:03;;;;;;;10.38;9.02;;;;;;;28.72;85.63;100193.88;5030275;28;20033;-71
2023/07/05 08:34:30;;;;;;;11.85;8.55;;;;;;;28.65;82.05;100175.56;5030344;28;20033;-64
2023/07/05 08:36:55;;;;;;;12.80;8.38;;;;;;;28.80;81.26;100197.97;5030503;28;20492;-65
2023/07/05 08:39:20;;;;;;;12.63;8.52;;;;;;;28.77;81.72;100198.97;5029747;28;20052;-65
2023/07/05 08:42:17;;;;;;;14.40;8.32;;;;;;;28.82;77.76;100190.81;5031872;28;20045;-64
2023/07/05 08:45:07;;;;;;;12.48;7.88;;;;;;;28.97;76.81;100182.16;5031836;28;20472;-68
2023/07/05 08:47:50;;;;;;;11.45;7.57;;;;;;;28.78;76.87;100126.31;5029643;28;20431;-66
2023/07/05 08:50:29;;;;;;;10.50;7.35;;;;;;;29.20;72.50;100181.13;5012912;28;20751;-67
2023/07/05 08:53:01;;;;;;;13.00;8.45;;;;;;;29.30;76.80;100176.28;5012433;28;20502;-68
2023/07/05 08:55:46;;;;;;;12.10;7.97;;;;;;;29.34;74.56;100169.03;5010109;28;20042;-67
2023/07/05 08:58:19;;;;;;;11.02;8.02;;;;;;;29.44;77.67;100165.00;5012514;28;20492;-67
2023/07/05 09:01:01;;;;;;;11.27;7.80;;;;;;;29.44;75.41;100165.00;5019412;28;20033;-67
2023/07/05 09:03:31;;;;;;;8.48;7.60;;;;;;;29.48;72.80;100158.59;5043580;28;20049;-64
2023/07/05 09:06:14;;;;;;;15.30;9.05;;;;;;;29.60;75.39;100159.81;5031903;28;20017;-68
2023/07/05 09:09:07;;;;;;;19.58;9.27;;;;;;;29.75;70.74;100160.91;5029543;28;20033;-67
2023/07/05 09:11:47;;;;;;;9.27;6.95;;;;;;;29.90;67.52;100159.31;5032215;28;20072;-68
2023/07/05 09:14:28;;;;;;;13.43;8.65;;;;;;;30.02;72.80;100141.91;5032104;28;20029;-67
2023/07/05 09:17:07;;;;;;;19.10;13.18;;;;;;;29.98;73.12;100122.56;5031940;28;20115;-67
2023/07/05 09:20:10;;;;;;;10.00;7.43;;;;;;;30.17;69.21;100140.28;5045661;28;20071;-64
2023/07/05 09:22:38;;;;;;;19.27;10.15;;;;;;;30.32;70.84;100154.63;5031946;28;20029;-69
2023/07/05 09:25:05;;;;;;;16.42;9.68;;;;;;;30.49;69.00;100148.44;5031637;28;20045;-67
2023/07/05 09:27:43;;;;;;;15.90;8.10;;;;;;;30.66;67.28;100147.56;5031779;28;20064;-67
2023/07/05 09:30:14;;;;;;;11.13;8.15;;;;;;;30.77;69.56;100149.69;5031809;28;20495;-66
2023/07/05 09:32:42;;;;;;;13.27;8.60;;;;;;;30.87;64.34;100145.56;5030622;28;20049;-67
2023/07/05 09:35:19;;;;;;;12.27;8.00;;;;;;;31.02;68.28;100138.56;5031266;28;20033;-67
2023/07/05 09:38:01;;;;;;;12.02;7.80;;;;;;;30.89;64.59;100127.69;5030103;28;20084;-67
2023/07/05 09:40:41;;;;;;;19.83;7.95;;;;;;;30.98;64.09;100129.88;5031980;28;20021;-67
2023/07/05 09:43:16;;;;;;;13.88;6.90;;;;;;;31.14;62.96;100129.94;5031685;28;20026;-66
2023/07/05 09:45:41;;;;;;;13.70;7.13;;;;;;;31.30;58.32;100113.06;5031544;28;20034;-65
2023/07/05 09:48:12;;;;;;;19.70;8.45;;;;;;;31.49;57.60;100122.72;5034081;28;20136;-65
2023/07/05 09:50:44;;;;;;;17.58;7.90;;;;;;;31.54;58.35;100102.84;5032229;28;20030;-68
2023/07/05 09:53:33;;;;;;;13.98;7.45;;;;;;;31.83;57.68;100112.81;5031085;28;20037;-69
2023/07/05 09:56:13;;;;;;;;;;;;;;;31.98;61.14;100111.06;5031280;28;20553;-63
2023/07/05 09:58:40;;;;;;;8.73;5.88;;;;;;;31.97;55.74;100104.03;5030595;28;19917;-68
2023/07/05 10:01:41;;;;;;;13.00;6.57;;;;;;;32.16;54.53;100109.97;5029499;28;20120;-67
2023/07/05 10:04:07;;;;;;;15.40;6.72;;;;;;;32.25;53.59;100103.25;5015619;28;20064;-68
2023/07/05 10:06:38;;;;;;;8.30;5.95;;;;;;;32.29;53.84;100099.47;5026805;28;20130;-69
2023/07/05 10:09:19;;;;;;;9.18;6.63;;;;;;;32.44;55.65;100097.69;5028222;28;20034;-68
2023/07/05 10:11:52;;;;;;;16.10;6.63;;;;;;;32.47;55.84;100081.47;5028350;28;20175;-66
2023/07/05 10:14:21;;;;;;;9.88;5.40;;;;;;;32.64;55.06;100095.59;5020269;28;20049;-69
2023/07/05 10:16:49;;;;;;;14.38;6.88;;;;;;;32.85;54.87;100082.75;5017981;28;20036;-68
2023/07/05 10:19:25;;;;;;;12.35;5.45;;;;;;;32.97;50.21;100083.78;5024511;28;20690;-68
2023/07/05 10:22:25;;;;;;;12.98;5.35;;;;;;;33.09;52.42;100085.69;5027893;28;20072;-65
2023/07/05 10:24:57;;;;;;;11.60;5.85;;;;;;;33.14;53.18;100080.06;4988586;28;20030;-69
2023/07/05 10:27:36;;;;;;;11.55;6.38;;;;;;;33.34;54.18;100085.00;4972471;28;20485;-68
2023/07/05 10:30:03;;;;;;;;;;;;;;;33.46;55.31;100080.69;4987230;28;20983;-66
2023/07/05 10:32:30;;;;;;;8.73;5.47;;;;;;;33.60;51.14;100077.09;4984377;28;20012;-67
2023/07/05 10:34:57;;;;;;;12.55;5.30;;;;;;;33.67;51.02;100070.38;4997123;28;20033;-70
2023/07/05 10:37:42;;;;;;;8.40;5.30;;;;;;;33.85;49.43;100079.00;4987856;28;20043;-67
2023/07/05 10:40:08;;;;;;;7.32;5.18;;;;;;;33.82;50.60;100073.88;4988403;28;20449;-67
2023/07/05 10:42:48;;;;;;;10.35;5.45;;;;;;;33.89;51.18;100078.81;4987318;28;20086;-69
2023/07/05 10:45:17;;;;;;;9.48;5.28;;;;;;;34.02;51.70;100093.94;4977946;28;20030;-69
2023/07/05 10:47:46;;;;;;;13.05;5.68;;;;;;;34.14;50.34;100076.19;4979329;28;20073;-68
2023/07/05 10:50:14;;;;;;;9.88;6.00;;;;;;;34.23;50.82;100074.69;4984132;28;20074;-67
2023/07/05 10:52:49;;;;;;;10.75;5.40;;;;;;;34.30;50.27;100067.94;4988417;28;20472;-67
2023/07/05 10:55:19;;;;;;;9.93;4.75;;;;;;;34.07;49.63;100057.97;4988657;28;20521;-64
2023/07/05 10:57:53;;;;;;;13.50;5.35;;;;;;;34.28;49.73;100071.69;4987675;28;20057;-64
2023/07/05 11:00:21;;;;;;;10.75;5.65;;;;;;;34.45;49.56;100070.56;4970831;28;20054;-68
2023/07/05 11:02:55;;;;;;;13.60;5.78;;;;;;;34.56;49.47;100069.78;5020477;28;20544;-65
2023/07/05 11:05:50;;;;;;;12.52;5.60;;;;;;;34.56;50.65;100070.66;5027509;28;20034;-71
2023/07/05 11:08:29;;;;;;;9.45;5.45;;;;;;;34.31;49.25;100034.84;4953571;28;20034;-64
2023/07/05 11:11:09;;;;;;;14.93;5.20;;;;;;;34.61;49.18;100060.47;4956423;28;20069;-68
2023/07/05 11:13:34;;;;;;;8.35;4.65;;;;;;;34.77;50.22;100040.59;4967879;28;20081;-65
2023/07/05 11:16:00;;;;;;;7.22;5.10;;;;;;;34.88;49.51;100056.84;4968810;28;20450;-66
2023/07/05 11:18:26;;;;;;;10.35;4.57;;;;;;;34.67;51.53;100043.97;4966948;28;20532;-64